Elco, Pennsylvania
Current Conditions -  °F | °C
As of 1:53 PM on Thursday 18 Dec 2014 (Local Time) from KAGC Reporting Station
Haze Haze  
Wind Chill: 19°   Ceiling: 2500
Heat Index: 28°   Visibility: 6mi
Dew Point: 19°   Wind: 9mph
Humidity: 69%   Direction: 250°WSW
Pressure: 30.14"   Gusts: NA
Location:  40.08°N, 79.87°W
Report Text: KAGC 181853Z 25008KT 6SM BR SCT018 OVC025 M02/M07 A3014 RMK AO2 SLP227 T10221072
Loading
Personal Weather Stations






























Interactive Weather Map New forecast layout! Learn more

10-Day Weather Forecast

Advertisements
Track Severe Weather on mobile